Terminal Aerodrome Forecast
Issued by NWS

Home | Current Version | Previous Version | Text Only | Print | Product List | Glossary On
Versions: 1 2 3 4 5 6 7 8 9 10 11 12 13 14
000
FTUS45 KLKN 232320
TAFELY
TAF
KELY 232320Z 2400/2424 01010G17KT P6SM SKC
     FM240200 35007KT P6SM SKC
     FM240600 17008KT P6SM SKC
     FM241900 35009G17KT P6SM SKC=

USA.gov is the U.S. government's official web portal to all federal, state and local government web resources and services.